Time;durP1;ratioP1;P1;durP2;ratioP2;P2;SDS_P1;SDS_P2;PMS_P1;PMS_P2;Temp;Humidity;BMP_temperature;BMP_pressure;BME280_temperature;BME280_humidity;BME280_pressure;Samples;Min_cycle;Max_cycle;Signal;HPM_P1;HPM_P2
2022/06/18 00:03:17;;;;;;;1.02;0.50;;;;;;;23.34;42.46;101768.03;16139304;19;131702;-55
2022/06/18 00:08:38;;;;;;;0.85;0.57;;;;;;;23.34;42.72;101768.03;16140022;19;130031;-56
2022/06/18 00:14:00;;;;;;;1.10;0.70;;;;;;;23.34;42.48;101762.47;16140489;19;129684;-56
2022/06/18 00:19:22;;;;;;;1.10;0.60;;;;;;;23.33;42.63;101763.56;16134636;19;129451;-51
2022/06/18 00:24:44;;;;;;;0.80;0.50;;;;;;;23.33;42.64;101768.28;16139178;19;129463;-56
2022/06/18 00:30:10;;;;;;;1.30;0.50;;;;;;;23.33;42.36;101765.50;16140451;19;129200;-51
2022/06/18 00:35:33;;;;;;;1.73;0.70;;;;;;;23.32;42.72;101766.63;16136602;19;128817;-55
2022/06/18 00:40:56;;;;;;;1.95;0.60;;;;;;;23.31;42.47;101760.19;16142785;19;129392;-56
2022/06/18 00:46:22;;;;;;;0.70;0.40;;;;;;;23.31;42.75;101757.38;16149744;19;129410;-55
2022/06/18 00:51:56;;;;;;;2.72;0.60;;;;;;;23.31;42.53;101746.22;16152790;19;128892;-54
2022/06/18 00:57:33;;;;;;;1.75;0.70;;;;;;;23.29;42.54;101737.25;16153124;19;129868;-55
2022/06/18 01:02:55;;;;;;;1.52;0.65;;;;;;;23.30;42.52;101738.09;16151769;19;129905;-57
2022/06/18 01:08:20;;;;;;;1.00;0.60;;;;;;;23.29;42.94;101731.66;16153750;19;129390;-54
2022/06/18 01:13:42;;;;;;;1.65;0.60;;;;;;;23.29;42.52;101728.03;16150208;19;129266;-55
2022/06/18 01:19:13;;;;;;;0.77;0.50;;;;;;;23.29;42.65;101725.25;16149567;19;129477;-56
2022/06/18 01:24:38;;;;;;;1.10;0.60;;;;;;;23.27;42.93;101722.69;16152459;19;128930;-56
2022/06/18 01:30:07;;;;;;;0.70;0.50;;;;;;;23.27;42.55;101717.13;16150468;19;129987;-56
2022/06/18 01:35:29;;;;;;;0.82;0.47;;;;;;;23.27;42.80;101716.28;16151356;19;128820;-53
2022/06/18 01:41:49;;;;;;;1.00;0.55;;;;;;;23.26;42.47;101715.47;16147683;19;130278;-54
2022/06/18 01:46:46;;;;;;;1.45;0.50;;;;;;;23.26;42.56;101720.19;16146627;19;129036;-56
2022/06/18 01:52:10;;;;;;;0.95;0.47;;;;;;;23.25;42.44;101718.47;16150879;19;130063;-55
2022/06/18 01:57:38;;;;;;;0.68;0.40;;;;;;;23.25;42.66;101719.34;16151362;19;129463;-56
2022/06/18 02:03:01;;;;;;;0.95;0.60;;;;;;;23.23;42.59;101715.97;16152844;19;129864;-54
2022/06/18 02:08:23;;;;;;;0.98;0.45;;;;;;;23.24;42.85;101719.59;16153695;19;129229;-57
2022/06/18 02:13:52;;;;;;;0.77;0.40;;;;;;;23.23;42.70;101718.75;16153523;19;130310;-55
2022/06/18 02:19:16;;;;;;;0.60;0.50;;;;;;;23.23;42.72;101715.97;16151190;19;128994;-55
2022/06/18 02:24:38;;;;;;;0.80;0.50;;;;;;;23.23;42.91;101715.97;16159243;19;129631;-56
2022/06/18 02:30:00;;;;;;;1.15;0.43;;;;;;;23.21;42.57;101709.78;16173697;19;129048;-55
2022/06/18 02:35:23;;;;;;;0.50;0.32;;;;;;;23.20;42.43;101708.09;16175592;19;129906;-53
2022/06/18 02:40:45;;;;;;;0.77;0.47;;;;;;;23.21;42.97;101712.59;16171559;19;129132;-54
2022/06/18 02:46:08;;;;;;;1.35;0.63;;;;;;;23.19;42.56;101701.69;16175707;19;128938;-56
2022/06/18 02:51:31;;;;;;;0.43;0.43;;;;;;;23.19;42.65;101698.03;16178309;19;128946;-55
2022/06/18 02:56:53;;;;;;;0.90;0.43;;;;;;;23.19;42.66;101709.19;16179346;19;129644;-55
2022/06/18 03:02:15;;;;;;;0.68;0.43;;;;;;;23.18;42.70;101711.16;16170961;19;129140;-56
2022/06/18 03:07:37;;;;;;;0.88;0.57;;;;;;;23.17;42.66;101708.59;16181786;19;129140;-56
2022/06/18 03:12:59;;;;;;;0.70;0.50;;;;;;;23.18;42.65;101721.47;16189715;19;128966;-56
2022/06/18 03:18:23;;;;;;;0.47;0.30;;;;;;;23.18;42.54;101713.94;16224456;19;128260;-55
2022/06/18 03:23:46;;;;;;;0.40;0.40;;;;;;;23.18;42.70;101713.09;16226281;19;128111;-55
2022/06/18 03:29:08;;;;;;;1.23;0.50;;;;;;;23.16;42.61;101704.13;16225590;19;127816;-56
2022/06/18 03:34:30;;;;;;;1.48;0.47;;;;;;;23.16;42.72;101699.41;16226083;19;129373;-56
2022/06/18 03:39:52;;;;;;;0.68;0.40;;;;;;;23.16;43.00;101701.34;16224875;19;130508;-55
2022/06/18 03:45:14;;;;;;;0.80;0.40;;;;;;;23.14;42.68;101701.59;16222511;19;128851;-56
2022/06/18 03:50:36;;;;;;;0.40;0.30;;;;;;;23.16;42.66;101704.13;16222497;19;128887;-55
2022/06/18 03:56:01;;;;;;;0.55;0.52;;;;;;;23.15;42.62;101702.44;16216382;19;128210;-57
2022/06/18 04:01:29;;;;;;;0.40;0.40;;;;;;;23.16;42.54;101698.53;16205252;19;129178;-56
2022/06/18 04:06:51;;;;;;;0.35;0.30;;;;;;;23.14;42.60;101704.41;16222328;19;128673;-56
2022/06/18 04:12:13;;;;;;;0.70;0.40;;;;;;;23.14;42.71;101700.78;16221336;19;129079;-54
2022/06/18 04:17:34;;;;;;;1.92;0.50;;;;;;;23.13;42.70;101701.88;16220408;19;129544;-55
2022/06/18 04:22:56;;;;;;;0.50;0.43;;;;;;;23.14;42.97;101700.78;16218341;19;129006;-56
2022/06/18 04:28:18;;;;;;;0.65;0.45;;;;;;;23.13;42.61;101699.09;16220951;19;128226;-53
2022/06/18 04:33:41;;;;;;;0.35;0.32;;;;;;;23.13;42.74;101696.28;16222568;19;128347;-55
2022/06/18 04:39:04;;;;;;;1.10;0.47;;;;;;;23.13;42.73;101704.66;16222072;19;129354;-56
2022/06/18 04:44:26;;;;;;;2.15;0.90;;;;;;;23.13;42.44;101710.25;16222183;19;128596;-57
2022/06/18 04:49:48;;;;;;;1.00;0.60;;;;;;;23.13;42.32;101704.66;16201937;19;128856;-56
2022/06/18 04:55:10;;;;;;;1.08;0.80;;;;;;;23.12;42.64;101694.59;16138039;19;130195;-56
2022/06/18 05:00:33;;;;;;;2.03;1.00;;;;;;;23.11;42.65;101695.69;16135033;19;129476;-56
2022/06/18 05:05:57;;;;;;;1.00;0.75;;;;;;;23.09;42.51;101695.94;16137640;19;129560;-57
2022/06/18 05:11:21;;;;;;;4.22;1.30;;;;;;;23.07;42.72;101700.09;16130754;19;128892;-57
2022/06/18 05:16:43;;;;;;;1.23;1.00;;;;;;;23.07;43.01;101700.09;16134511;19;129567;-55
2022/06/18 05:22:05;;;;;;;5.10;2.33;;;;;;;23.07;43.50;101702.91;16130700;19;129442;-55
2022/06/18 05:27:31;;;;;;;10.60;2.90;;;;;;;23.03;43.84;101694.19;16147713;19;129289;-55
2022/06/18 05:32:53;;;;;;;6.43;2.92;;;;;;;22.94;44.12;101695.75;16146099;19;130266;-55
2022/06/18 05:38:18;;;;;;;8.40;3.30;;;;;;;22.83;44.23;101684.38;16147291;19;129576;-55
2022/06/18 05:43:40;;;;;;;7.15;2.97;;;;;;;22.74;44.70;101686.78;16147388;19;129547;-54
2022/06/18 05:49:02;;;;;;;7.80;2.97;;;;;;;22.64;45.14;101692.22;16147819;19;133935;-67
2022/06/18 05:54:24;;;;;;;9.13;2.42;;;;;;;22.57;45.25;101686.81;16150841;19;129612;-67
2022/06/18 05:59:46;;;;;;;5.68;2.63;;;;;;;22.55;45.21;101690.94;16148960;19;129391;-67
2022/06/18 06:05:08;;;;;;;4.55;2.33;;;;;;;22.52;45.28;101683.94;16149040;19;130495;-70
2022/06/18 06:16:15;;;;;;;10.63;3.35;;;;;;;22.55;45.75;101693.72;16148880;19;128920;-67
2022/06/18 06:21:36;;;;;;;12.38;3.10;;;;;;;22.60;45.61;101693.81;16145792;19;130077;-56
2022/06/18 06:26:58;;;;;;;8.65;2.70;;;;;;;22.72;45.57;101697.34;16149509;19;129130;-58
2022/06/18 06:32:21;;;;;;;12.02;2.80;;;;;;;22.81;45.40;101692.19;16147880;19;129502;-59
2022/06/18 06:37:42;;;;;;;5.57;2.20;;;;;;;22.86;45.16;101688.63;16147753;19;130938;-57
2022/06/18 06:43:07;;;;;;;6.00;2.30;;;;;;;22.91;45.29;101696.25;16141630;19;130450;-57
2022/06/18 06:48:28;;;;;;;6.28;2.22;;;;;;;22.94;44.92;101690.16;16146523;19;128906;-58
2022/06/18 06:53:51;;;;;;;3.60;1.88;;;;;;;22.95;44.82;101689.91;16146795;19;129714;-58
2022/06/18 06:59:13;;;;;;;5.00;2.00;;;;;;;22.97;44.71;101701.66;16143312;19;130374;-57
2022/06/18 07:04:34;;;;;;;3.42;1.77;;;;;;;22.99;44.76;101693.88;16144152;19;129719;-58
2022/06/18 07:09:56;;;;;;;3.67;1.83;;;;;;;23.00;44.66;101694.72;16145277;19;129622;-59
2022/06/18 07:15:19;;;;;;;3.05;1.90;;;;;;;23.01;44.68;101697.25;16142606;19;130765;-55
2022/06/18 07:20:42;;;;;;;4.03;1.70;;;;;;;23.01;44.76;101679.66;16144333;19;129526;-55
2022/06/18 07:26:04;;;;;;;3.95;1.88;;;;;;;23.02;44.64;101687.75;16144326;19;129012;-56
2022/06/18 07:31:35;;;;;;;1.90;1.40;;;;;;;23.02;44.44;101684.97;16143270;19;128908;-59
2022/06/18 07:36:57;;;;;;;6.50;2.40;;;;;;;23.03;44.46;101691.41;16145128;19;131190;-58
2022/06/18 07:42:21;;;;;;;7.63;1.88;;;;;;;23.04;44.71;101685.56;16139962;19;130242;-57
2022/06/18 07:47:45;;;;;;;4.95;1.83;;;;;;;23.07;44.54;101672.19;16140148;19;129243;-58
2022/06/18 07:53:06;;;;;;;5.82;1.90;;;;;;;23.07;44.34;101672.19;16140881;19;131102;-57
2022/06/18 07:58:29;;;;;;;2.95;1.65;;;;;;;23.08;44.37;101668.31;16139569;19;128892;-58
2022/06/18 08:03:51;;;;;;;5.18;1.75;;;;;;;23.07;44.42;101661.91;16135912;19;129835;-58
2022/06/18 08:09:14;;;;;;;3.20;1.90;;;;;;;23.07;44.57;101650.72;16142668;19;130356;-58
2022/06/18 08:14:35;;;;;;;3.55;1.48;;;;;;;23.08;44.16;101648.78;16141573;19;129601;-57
2022/06/18 08:19:57;;;;;;;2.13;1.35;;;;;;;23.09;44.14;101639.28;16134779;19;129181;-58
2022/06/18 08:25:19;;;;;;;2.80;1.23;;;;;;;23.09;43.89;101639.28;16137358;19;129212;-58
2022/06/18 08:30:41;;;;;;;2.38;1.23;;;;;;;23.09;44.41;101630.94;16140789;19;129412;-58
2022/06/18 08:36:08;;;;;;;3.55;1.40;;;;;;;23.09;44.08;101626.16;16137418;19;129427;-58
2022/06/18 08:41:53;;;;;;;1.27;1.00;;;;;;;23.10;43.74;101627.88;16138020;19;128883;-58
2022/06/18 08:47:48;;;;;;;4.10;1.52;;;;;;;23.11;44.18;101623.13;16141577;19;129285;-58
2022/06/18 08:53:51;;;;;;;2.08;1.20;;;;;;;23.10;44.01;101615.88;16139436;19;129849;-58
2022/06/18 08:59:44;;;;;;;3.25;1.17;;;;;;;23.11;44.24;101611.97;16137847;19;129235;-58
2022/06/18 09:05:35;;;;;;;3.05;1.13;;;;;;;23.10;43.78;101613.06;16149544;19;129307;-57
2022/06/18 09:11:00;;;;;;;1.55;0.88;;;;;;;23.10;44.04;101610.28;16153451;19;128881;-58
2022/06/18 09:16:29;;;;;;;2.73;1.20;;;;;;;23.11;44.13;101617.56;16151662;19;128849;-57
2022/06/18 09:21:53;;;;;;;4.53;1.20;;;;;;;23.11;43.95;101623.13;16150176;19;129253;-58
2022/06/18 09:27:43;;;;;;;2.07;1.00;;;;;;;23.13;43.97;101624.56;16153426;19;129505;-57
2022/06/18 09:33:43;;;;;;;2.95;1.13;;;;;;;23.13;43.83;101612.56;16152680;19;128994;-58
2022/06/18 09:39:11;;;;;;;1.23;0.90;;;;;;;23.13;43.79;101610.59;16148437;19;129229;-58
2022/06/18 09:44:42;;;;;;;5.45;0.90;;;;;;;23.14;43.91;101605.88;16145058;19;129509;-58
2022/06/18 09:50:13;;;;;;;2.90;1.00;;;;;;;23.15;43.75;101607.53;16151032;19;129412;-58
2022/06/18 09:55:43;;;;;;;1.73;0.70;;;;;;;23.15;43.74;101601.97;16151018;19;129055;-58
2022/06/18 10:01:08;;;;;;;3.38;1.50;;;;;;;23.15;43.57;101613.13;16147893;19;129292;-56
2022/06/18 10:07:15;;;;;;;2.83;1.17;;;;;;;23.15;43.67;101613.13;16151455;19;129375;-57
2022/06/18 10:12:39;;;;;;;1.42;0.85;;;;;;;23.16;43.64;101606.44;16148942;19;129578;-58
2022/06/18 10:18:38;;;;;;;1.60;0.80;;;;;;;23.17;43.75;101602.53;16147475;19;129036;-57
2022/06/18 10:24:12;;;;;;;1.70;1.00;;;;;;;23.16;43.91;101593.34;16145835;19;129019;-57
2022/06/18 10:29:42;;;;;;;2.15;0.80;;;;;;;23.16;43.88;101587.75;16148087;19;129453;-57
2022/06/18 10:35:16;;;;;;;2.95;0.95;;;;;;;23.17;43.53;101571.84;16148591;19;129494;-56
2022/06/18 10:40:53;;;;;;;0.80;0.63;;;;;;;23.18;43.86;101563.22;16146991;19;129034;-57
2022/06/18 10:46:21;;;;;;;1.60;0.88;;;;;;;23.17;43.98;101549.50;16148453;19;128873;-58
2022/06/18 10:51:47;;;;;;;1.80;0.90;;;;;;;23.19;43.88;101541.72;16147922;19;128878;-58
2022/06/18 10:57:23;;;;;;;1.25;0.95;;;;;;;23.20;43.95;101535.88;16146875;19;129455;-58
2022/06/18 11:02:47;;;;;;;1.92;0.90;;;;;;;23.19;43.59;101531.41;16140212;19;128953;-58
2022/06/18 11:08:24;;;;;;;1.08;0.60;;;;;;;23.21;43.59;101528.34;16146477;19;131505;-57
2022/06/18 11:13:48;;;;;;;1.75;0.90;;;;;;;23.20;43.71;101515.50;16147212;19;129198;-57
2022/06/18 11:19:19;;;;;;;1.77;0.88;;;;;;;23.23;43.52;101509.41;16141497;19;129202;-58
2022/06/18 11:24:43;;;;;;;1.05;0.70;;;;;;;23.21;43.58;101500.44;16139060;19;128858;-57
2022/06/18 11:30:18;;;;;;;3.58;0.80;;;;;;;23.22;43.63;101493.75;16145328;19;129456;-58
2022/06/18 11:35:40;;;;;;;1.37;0.80;;;;;;;23.22;43.30;101492.91;16144575;19;130258;-58
2022/06/18 11:41:12;;;;;;;1.75;0.75;;;;;;;23.24;43.53;101487.91;16142128;19;129181;-56
2022/06/18 11:46:42;;;;;;;1.02;0.77;;;;;;;23.24;43.56;101477.59;16143471;19;128867;-58
2022/06/18 11:52:20;;;;;;;1.77;0.70;;;;;;;23.25;43.52;101468.09;16142530;19;129127;-58
2022/06/18 11:58:09;;;;;;;1.40;0.75;;;;;;;23.26;43.39;101461.41;16142166;19;129507;-57
2022/06/18 12:03:39;;;;;;;1.88;0.70;;;;;;;23.25;43.43;101456.09;16138558;19;129354;-58
2022/06/18 12:09:01;;;;;;;1.02;0.65;;;;;;;23.25;43.53;101448.56;16143071;19;129226;-56
2022/06/18 12:15:00;;;;;;;1.65;0.60;;;;;;;23.27;43.45;101437.94;16141808;19;129407;-58
2022/06/18 12:21:01;;;;;;;2.13;0.65;;;;;;;23.26;43.29;101433.50;16139606;19;129619;-58
2022/06/18 12:26:39;;;;;;;1.13;0.73;;;;;;;23.28;43.19;101424.84;16138818;19;130926;-58
2022/06/18 12:32:04;;;;;;;2.88;0.80;;;;;;;23.28;43.21;101422.88;16137741;19;129376;-58
2022/06/18 12:37:54;;;;;;;3.53;0.88;;;;;;;23.29;43.62;101413.41;16138380;19;129044;-58
2022/06/18 12:43:49;;;;;;;2.00;0.75;;;;;;;23.30;43.41;101401.13;16134389;19;129091;-58
2022/06/18 12:49:20;;;;;;;0.70;0.63;;;;;;;23.29;43.37;101388.28;16137539;19;129202;-59
2022/06/18 12:55:00;;;;;;;2.17;0.95;;;;;;;23.30;43.50;101392.75;16135157;19;129052;-58
2022/06/18 13:00:35;;;;;;;1.65;1.10;;;;;;;23.33;43.52;101380.22;16132808;19;130267;-58
2022/06/18 13:06:12;;;;;;;1.88;1.00;;;;;;;23.33;43.40;101374.63;16136913;19;129483;-58
2022/06/18 13:11:55;;;;;;;1.58;0.93;;;;;;;23.34;43.34;101365.16;16138221;19;129796;-58
2022/06/18 13:17:24;;;;;;;2.05;0.98;;;;;;;23.33;43.41;101358.72;16136523;19;129290;-58
2022/06/18 13:22:47;;;;;;;3.88;1.10;;;;;;;23.34;43.25;101349.25;16134928;19;129361;-57
2022/06/18 13:28:16;;;;;;;2.58;0.98;;;;;;;23.38;43.57;101338.38;16135829;19;130535;-57
2022/06/18 13:34:02;;;;;;;3.72;1.27;;;;;;;23.38;43.42;101337.56;16137745;19;129045;-58
2022/06/18 13:39:45;;;;;;;4.32;1.40;;;;;;;23.39;43.70;101345.66;16136423;19;129173;-58
2022/06/18 13:45:16;;;;;;;2.08;0.80;;;;;;;23.38;43.31;101326.38;16131263;19;129332;-58
2022/06/18 13:50:50;;;;;;;1.98;0.73;;;;;;;23.39;43.14;101323.31;16150561;19;128762;-59
2022/06/18 13:56:22;;;;;;;3.15;0.90;;;;;;;23.41;43.33;101323.03;16151037;19;129319;-59
2022/06/18 14:01:57;;;;;;;3.47;1.45;;;;;;;23.41;43.20;101320.25;16145589;19;130126;-58
2022/06/18 14:07:27;;;;;;;1.48;0.75;;;;;;;23.42;43.33;101311.63;16148388;19;129133;-58
2022/06/18 14:12:57;;;;;;;4.25;0.82;;;;;;;23.44;43.41;101297.38;16149703;19;130032;-58
2022/06/18 14:18:21;;;;;;;5.72;1.50;;;;;;;23.43;43.24;101284.53;16146069;19;129668;-60
2022/06/18 14:23:53;;;;;;;3.83;1.20;;;;;;;23.48;43.79;101284.56;16145959;19;129581;-59
2022/06/18 14:29:17;;;;;;;3.28;1.30;;;;;;;23.55;43.99;101281.53;16148776;19;129454;-60
2022/06/18 14:34:58;;;;;;;2.47;1.20;;;;;;;23.61;44.16;101267.34;16148327;19;129930;-60
2022/06/18 14:47:14;;;;;;;7.57;2.10;;;;;;;23.71;44.02;101252.56;16147042;19;129233;-60
2022/06/18 14:53:20;;;;;;;5.15;2.00;;;;;;;23.74;44.05;101246.44;16143149;19;129591;-68
2022/06/18 14:58:57;;;;;;;5.55;2.00;;;;;;;23.79;44.20;101237.22;16139888;19;130111;-68
2022/06/18 15:04:27;;;;;;;5.78;1.63;;;;;;;23.81;44.26;101229.41;16141821;19;130280;-67
2022/06/18 15:09:49;;;;;;;5.90;1.98;;;;;;;23.84;44.12;101220.50;16144972;19;129517;-68
2022/06/18 15:15:25;;;;;;;7.45;2.08;;;;;;;23.90;44.13;101204.59;16142835;19;129197;-67
2022/06/18 15:26:20;;;;;;;7.57;2.22;;;;;;;23.93;44.00;101195.66;16145456;19;129204;-67
2022/06/18 15:31:44;;;;;;;8.55;2.20;;;;;;;23.95;44.01;101185.00;16142196;19;129148;-68
2022/06/18 15:37:21;;;;;;;14.00;2.03;;;;;;;23.99;44.42;101172.19;16142639;19;130129;-67
2022/06/18 15:42:44;;;;;;;11.07;2.42;;;;;;;24.00;44.23;101168.28;16142996;19;130810;-68
2022/06/18 15:48:18;;;;;;;18.17;3.13;;;;;;;24.05;44.27;101167.44;16144286;19;129463;-68
2022/06/18 15:53:44;;;;;;;13.52;2.90;;;;;;;24.06;44.48;101150.38;16142621;19;129505;-68
2022/06/18 15:59:07;;;;;;;9.35;2.60;;;;;;;24.08;44.40;101150.13;16140311;19;129884;-69
2022/06/18 16:04:31;;;;;;;11.43;3.08;;;;;;;24.13;44.27;101152.91;16139258;19;129070;-70
2022/06/18 16:09:56;;;;;;;9.95;2.85;;;;;;;24.15;44.89;101145.06;16139539;19;129567;-70
2022/06/18 16:15:30;;;;;;;10.90;3.33;;;;;;;24.19;45.04;101139.75;16142530;19;130289;-70
2022/06/18 16:20:59;;;;;;;11.40;3.28;;;;;;;24.20;45.32;101141.44;16138850;19;129540;-70
2022/06/18 16:26:29;;;;;;;10.73;3.63;;;;;;;24.22;45.25;101142.84;16136723;19;129969;-68
2022/06/18 16:31:52;;;;;;;8.93;3.47;;;;;;;24.23;45.61;101133.34;16141518;19;129418;-68
2022/06/18 16:37:34;;;;;;;16.20;4.10;;;;;;;24.26;45.85;101134.78;16136447;19;130680;-69
2022/06/18 16:42:56;;;;;;;9.45;3.80;;;;;;;24.29;45.87;101131.44;16136883;19;130436;-72
2022/06/18 16:54:00;;;;;;;17.33;4.85;;;;;;;24.39;46.22;101122.16;16138638;19;129505;-69
2022/06/18 16:59:25;;;;;;;13.13;4.35;;;;;;;24.42;46.11;101128.06;16136887;19;129459;-69
2022/06/18 17:04:47;;;;;;;18.23;4.65;;;;;;;24.45;46.49;101112.66;16135391;19;129890;-69
2022/06/18 17:10:17;;;;;;;11.20;4.40;;;;;;;24.47;46.28;101116.03;16138259;19;129728;-69
2022/06/18 17:15:40;;;;;;;15.88;5.40;;;;;;;24.49;46.38;101105.41;16133436;19;129268;-70
2022/06/18 17:21:02;;;;;;;11.00;4.45;;;;;;;24.50;46.52;101098.66;16140819;19;132679;-68
2022/06/18 17:32:04;;;;;;;11.48;4.40;;;;;;;24.50;46.46;101081.88;16153062;19;130502;-70
2022/06/18 17:37:28;;;;;;;15.65;4.97;;;;;;;24.51;46.46;101075.16;16152313;19;129823;-70
2022/06/18 17:42:52;;;;;;;14.43;5.05;;;;;;;24.53;46.31;101077.69;16150366;19;129600;-67
2022/06/18 17:48:20;;;;;;;24.37;5.70;;;;;;;24.53;46.57;101061.75;16152022;19;129339;-70
2022/06/18 17:53:42;;;;;;;14.52;5.50;;;;;;;24.55;46.52;101059.50;16150893;19;129461;-69
2022/06/18 17:59:12;;;;;;;19.60;5.20;;;;;;;24.55;46.94;101048.31;16148865;19;129984;-70
2022/06/18 18:04:37;;;;;;;12.00;4.35;;;;;;;24.54;46.84;101032.66;16145417;19;129467;-70
2022/06/18 18:09:59;;;;;;;9.27;3.80;;;;;;;24.56;47.22;101032.38;16150257;19;129430;-70
2022/06/18 18:15:21;;;;;;;17.50;5.07;;;;;;;24.56;47.33;101033.22;16149420;19;129576;-70
2022/06/18 18:20:43;;;;;;;9.68;3.92;;;;;;;24.56;47.48;101024.81;16150761;19;129016;-70
2022/06/18 18:26:05;;;;;;;10.40;4.10;;;;;;;24.55;47.47;101020.34;16145235;19;129842;-70
2022/06/18 18:31:27;;;;;;;11.65;3.85;;;;;;;24.56;47.54;101022.03;16147528;19;129345;-70
2022/06/18 18:36:49;;;;;;;8.45;3.50;;;;;;;24.54;47.55;101018.69;16146901;19;128903;-70
2022/06/18 18:42:14;;;;;;;13.02;4.18;;;;;;;24.55;47.63;101013.94;16150386;19;130222;-70
2022/06/18 18:47:37;;;;;;;12.07;3.60;;;;;;;24.54;47.59;101012.25;16148926;19;129393;-70
2022/06/18 18:52:59;;;;;;;8.02;3.60;;;;;;;24.52;47.74;101009.72;16147511;19;129152;-70
2022/06/18 18:58:21;;;;;;;12.82;3.03;;;;;;;24.51;47.85;101005.25;16143447;19;129509;-70
2022/06/18 19:03:43;;;;;;;30.60;4.47;;;;;;;24.52;47.83;100995.75;16146179;19;130126;-68
2022/06/18 19:09:05;;;;;;;12.00;3.28;;;;;;;24.51;47.43;100996.03;16144219;19;130290;-69
2022/06/18 19:14:27;;;;;;;7.15;3.17;;;;;;;24.48;47.85;100986.28;16154076;19;128963;-66
2022/06/18 19:19:49;;;;;;;15.25;2.78;;;;;;;24.47;48.02;100973.41;16159146;19;129527;-67
2022/06/18 19:25:11;;;;;;;21.40;3.20;;;;;;;24.48;48.13;100958.31;16206270;19;129777;-67
2022/06/18 19:30:34;;;;;;;9.93;3.65;;;;;;;24.48;48.19;100941.53;16225438;19;129105;-67
2022/06/18 19:35:57;;;;;;;18.13;3.08;;;;;;;24.49;47.68;100937.59;16226524;19;128329;-66
2022/06/18 19:41:20;;;;;;;9.55;2.75;;;;;;;24.49;48.04;100932.00;16226585;19;129090;-67
2022/06/18 19:46:43;;;;;;;11.88;3.10;;;;;;;24.49;48.00;100932.00;16219792;19;129625;-67
2022/06/18 19:52:06;;;;;;;9.48;2.75;;;;;;;24.48;48.03;100929.50;16223571;19;129101;-67
2022/06/18 19:57:48;;;;;;;21.88;3.88;;;;;;;24.47;47.81;100939.84;16223148;19;128461;-66
2022/06/18 20:03:10;;;;;;;19.20;4.95;;;;;;;24.49;47.98;100945.16;16224252;19;128436;-67
2022/06/18 20:08:34;;;;;;;20.63;4.05;;;;;;;24.49;48.23;100943.19;16218871;19;129249;-67
2022/06/18 20:13:56;;;;;;;13.13;3.10;;;;;;;24.49;48.00;100946.00;16223202;19;128211;-67
2022/06/18 20:19:18;;;;;;;12.63;3.08;;;;;;;24.48;47.74;100930.34;16223534;19;130637;-67
2022/06/18 20:24:40;;;;;;;12.07;3.03;;;;;;;24.49;48.07;100931.16;16218748;19;129356;-66
2022/06/18 20:30:05;;;;;;;12.55;2.72;;;;;;;24.49;48.02;100919.97;16202241;19;130087;-66
2022/06/18 20:35:28;;;;;;;;;;;;;;;24.46;48.02;100918.59;16223709;19;128182;-67
2022/06/18 20:40:59;;;;;;;8.98;3.00;;;;;;;24.46;48.03;100913.00;16221141;19;129204;-67
2022/06/18 20:46:25;;;;;;;12.90;3.20;;;;;;;24.42;47.71;100914.69;16213932;19;128197;-67
2022/06/18 20:51:49;;;;;;;11.23;2.90;;;;;;;24.39;47.74;100916.09;16206749;19;128137;-67
2022/06/18 20:57:19;;;;;;;7.55;2.38;;;;;;;24.38;48.14;100908.00;16214649;19;129574;-67
2022/06/18 21:02:43;;;;;;;8.93;2.60;;;;;;;24.37;47.73;100923.13;16226197;19;129457;-67
2022/06/18 21:08:05;;;;;;;8.60;2.30;;;;;;;24.35;47.97;100947.72;16154757;19;129532;-66
2022/06/18 21:13:27;;;;;;;6.40;2.55;;;;;;;24.33;47.78;100967.56;16153326;19;131088;-66
2022/06/18 21:18:49;;;;;;;6.68;2.33;;;;;;;24.32;47.92;100959.47;16152897;19;128892;-66
2022/06/18 21:24:12;;;;;;;11.43;1.95;;;;;;;24.30;47.86;100956.13;16148084;19;131532;-66
2022/06/18 21:29:34;;;;;;;3.10;1.77;;;;;;;24.28;48.12;100956.41;16149889;19;128990;-66
2022/06/18 21:40:39;;;;;;;7.25;1.83;;;;;;;24.24;47.47;100935.69;16152520;19;129629;-66
2022/06/18 21:46:02;;;;;;;11.55;2.08;;;;;;;24.22;47.69;100926.75;16146383;19;129847;-66
2022/06/18 21:51:24;;;;;;;4.88;1.48;;;;;;;24.21;47.55;100936.25;16150993;19;129081;-66
2022/06/18 21:56:50;;;;;;;5.75;1.63;;;;;;;24.20;47.57;100941.03;16150281;19;129562;-65
2022/06/18 22:02:13;;;;;;;5.30;1.60;;;;;;;24.20;47.26;100929.00;16146670;19;129176;-66
2022/06/18 22:07:35;;;;;;;5.22;1.58;;;;;;;24.18;47.16;100909.72;16143390;19;129240;-66
2022/06/18 22:18:37;;;;;;;3.63;1.30;;;;;;;24.15;47.02;100909.47;16146411;19;129728;-66
2022/06/18 22:23:59;;;;;;;5.28;1.52;;;;;;;24.13;46.74;100895.75;16145181;19;129430;-65
2022/06/18 22:29:21;;;;;;;3.50;1.65;;;;;;;24.12;46.66;100899.69;16143534;19;130940;-65
2022/06/18 22:34:44;;;;;;;8.50;1.95;;;;;;;24.11;46.53;100915.63;16145246;19;130555;-66
2022/06/18 22:40:07;;;;;;;5.10;1.55;;;;;;;24.10;46.90;100886.00;16144011;19;129624;-65
2022/06/18 22:45:29;;;;;;;5.15;1.60;;;;;;;24.09;46.58;100889.09;16144100;19;129018;-66
2022/06/18 22:50:51;;;;;;;5.85;1.85;;;;;;;24.07;46.34;100880.97;16147046;19;129602;-66
2022/06/18 22:56:16;;;;;;;3.75;1.38;;;;;;;24.05;46.22;100866.47;16141430;19;129710;-66
2022/06/18 23:01:38;;;;;;;6.07;1.67;;;;;;;24.06;46.33;100858.91;16143734;19;129741;-65
2022/06/18 23:07:01;;;;;;;5.55;1.52;;;;;;;24.06;46.00;100828.16;16140812;19;129893;-66
2022/06/18 23:12:26;;;;;;;3.85;1.10;;;;;;;24.04;46.16;100819.22;16142645;19;129501;-66
2022/06/18 23:17:48;;;;;;;;;;;;;;;24.00;45.95;100802.19;16138018;19;129454;-66
2022/06/18 23:23:10;;;;;;;4.32;1.20;;;;;;;24.02;46.05;100783.19;16140663;19;129463;-65
2022/06/18 23:28:32;;;;;;;3.08;1.17;;;;;;;24.00;45.72;100760.28;16138292;19;130058;-65
2022/06/18 23:33:57;;;;;;;4.07;1.20;;;;;;;24.00;45.75;100745.50;16141171;19;129782;-66
2022/06/18 23:39:19;;;;;;;3.45;1.10;;;;;;;23.97;45.96;100756.13;16142095;19;131420;-66
2022/06/18 23:44:44;;;;;;;4.40;0.82;;;;;;;23.99;45.68;100743.81;16136752;19;130185;-66
2022/06/18 23:50:06;;;;;;;5.05;1.17;;;;;;;23.97;45.44;100728.19;16136344;19;130772;-66
2022/06/18 23:55:32;;;;;;;3.05;1.00;;;;;;;23.97;45.36;100724.53;16136045;19;129635;-66
